MSC Vigo — A8ZV8 — position and weather

sailwx.info

Track history (hours):
 
Tides and Currents Weather Stations Pressure Air Temp Water Temp Dewpoint Dewpoint Depression Visibility Wind Speed Wind Dir Waves Ship Positions

MSC Vigo

Last reported at 2015-Mar-29 00:31 UTC. Time now 2015-Mar-29 01:07 UTC.
Position N 39°26' W 000°20'.

Length 270 m; draft 11.7 m.

Type: Ship (hazmat cat A). MMSI: 636092276.

Date/timePositionNaut miles runAvg speedWind from/ knotsBaromVisibWave heightAir tempDewpointWater temp
2015-Mar-29 00:31N 39°26' W 000°20'0 0.0
2015-Mar-28 23:31N 39°26' W 000°20'0 0.0
2015-Mar-28 22:31N 39°26' W 000°20'0 0.0
2015-Mar-28 21:31N 39°26' W 000°20'0 0.0
2015-Mar-28 20:31N 39°26' W 000°20'0 0.0
2015-Mar-28 19:31N 39°26' W 000°20'0 0.0
2015-Mar-28 18:31N 39°26' W 000°20'0 0.0
2015-Mar-28 17:25N 39°26' W 000°20'0 0.0
2015-Mar-28 16:31N 39°26' W 000°20'0 0.0
2015-Mar-28 15:31N 39°26' W 000°20'0 0.0
2015-Mar-28 14:31N 39°26' W 000°20'0 0.0
2015-Mar-28 13:31N 39°26' W 000°20'0 0.0
2015-Mar-28 12:25N 39°26' W 000°20'0 0.0
2015-Mar-28 11:31N 39°26' W 000°20'0 0.3
2015-Mar-28 10:31N 39°26' W 000°20'0 0.0
2015-Mar-28 09:31N 39°26' W 000°20'0 0.0
2015-Mar-28 08:31N 39°26' W 000°20'0 0.0
2015-Mar-28 07:31N 39°26' W 000°20'0 0.0
2015-Mar-28 06:31N 39°26' W 000°20'0 0.0
2015-Mar-28 05:31N 39°26' W 000°20'0 0.0
2015-Mar-28 04:31N 39°26' W 000°20'0 0.0
2015-Mar-28 03:31N 39°26' W 000°20'0 0.0
2015-Mar-28 02:31N 39°26' W 000°20'0 0.0
2015-Mar-28 01:32N 39°26' W 000°20'3 3.1
2015-Mar-28 00:33N 39°25' W 000°16'5 4.9
2015-Mar-27 23:33N 39°22' W 000°11'1 0.5
2015-Mar-27 22:31N 39°22' W 000°11'0 0.4
2015-Mar-27 21:33N 39°22' W 000°12'0 0.3
2015-Mar-27 20:33N 39°23' W 000°12'1 1.1
2015-Mar-27 19:33N 39°24' W 000°12'1 1.0
2015-Mar-27 18:33N 39°25' W 000°12'1211.5
2015-Mar-27 17:33N 39°25' E 000°03'3716.0
2015-Mar-27 15:15N 39°27' E 000°51'1413.2
2015-Mar-27 14:12N 39°41' E 000°52'1117.2
2015-Mar-27 13:34N 39°50' E 000°60'2019.5
2015-Mar-27 12:33N 40°07' E 001°13'1919.4
2015-Mar-27 11:33N 40°23' E 001°27'1919.3
2015-Mar-27 10:34N 40°39' E 001°41'2020.2
2015-Mar-27 09:33N 40°57' E 001°55'2019.6
2015-Mar-27 08:33N 41°13' E 002°09'5 0.4
2015-Mar-26 18:09N 41°18' E 002°09'2 1.1
2015-Mar-26 16:31N 41°18' E 002°11'6 6.5
2015-Mar-26 15:33N 41°15' E 002°18'1 1.0
2015-Mar-26 14:33N 41°14' E 002°17'1 0.8
2015-Mar-26 13:31N 41°14' E 002°16'1 0.7
2015-Mar-26 12:33N 41°14' E 002°15'1 0.6
2015-Mar-26 11:19N 41°15' E 002°15'5 2.9
2015-Mar-26 09:33N 41°17' E 002°21'2914.1
2015-Mar-26 07:29N 41°33' E 002°54'1515.1
2015-Mar-26 06:29N 41°41' E 003°10'1414.8
2015-Mar-26 05:33N 41°50' E 003°24'1515.4
2015-Mar-26 04:34N 42°02' E 003°38'1515.0
2015-Mar-26 03:34N 42°13' E 003°51'1515.0
2015-Mar-26 02:33N 42°25' E 004°04'1514.9
2015-Mar-26 01:34N 42°36' E 004°17'1715.3
2015-Mar-26 00:28N 42°48' E 004°32'1414.5
2015-Mar-25 23:28N 42°59' E 004°45'1414.7
2015-Mar-25 22:33N 43°09' E 004°58'1313.3
2015-Mar-25 21:33N 43°23' E 004°57'6 5.5
2015-Mar-25 20:32N 43°25' E 004°50'0 0.0
2015-Mar-25 19:32N 43°25' E 004°50'0 0.0
2015-Mar-25 18:32N 43°25' E 004°50'0 0.0
2015-Mar-25 17:32N 43°25' E 004°50'0 0.0
2015-Mar-25 16:32N 43°25' E 004°50'0 0.0
2015-Mar-25 15:32N 43°25' E 004°50'0 0.0
2015-Mar-25 14:32N 43°25' E 004°50'0 0.0
2015-Mar-25 13:32N 43°25' E 004°50'0 0.0
2015-Mar-25 12:32N 43°25' E 004°50'0 0.0
2015-Mar-25 11:33N 43°25' E 004°50'0 0.0
2015-Mar-25 10:33N 43°25' E 004°50'0 0.0
2015-Mar-25 09:33N 43°25' E 004°50'0 0.0
2015-Mar-25 08:33N 43°25' E 004°50'0 0.0
2015-Mar-25 07:33N 43°25' E 004°50'0 0.0
2015-Mar-25 06:33N 43°25' E 004°50'0 0.0
2015-Mar-25 05:33N 43°25' E 004°50'0 0.0
2015-Mar-25 04:33N 43°25' E 004°50'0 0.0
2015-Mar-25 03:33N 43°25' E 004°50'3 2.8
2015-Mar-25 02:33N 43°24' E 004°54'1111.2
2015-Mar-25 01:33N 43°14' E 005°02'7711.0
2015-Mar-24 18:33N 42°55' E 006°44'1313.0
2015-Mar-24 17:32N 43°01' E 007°01'1212.6
2015-Mar-24 16:33N 43°05' E 007°16'1312.4
2015-Mar-24 15:32N 43°10' E 007°32'4912.0
2015-Mar-24 11:27N 43°46' E 008°18'1314.1
2015-Mar-24 10:34N 43°57' E 008°27'1313.1
2015-Mar-24 09:33N 44°09' E 008°36'1313.5
2015-Mar-24 08:33N 44°21' E 008°42'5 5.0
2015-Mar-24 07:31N 44°25' E 008°47'0 0.0
2015-Mar-24 06:31N 44°25' E 008°47'0 0.0
2015-Mar-24 05:28N 44°25' E 008°47'0 0.0
2015-Mar-24 04:28N 44°25' E 008°47'0 0.0
2015-Mar-24 03:31N 44°25' E 008°47'0 0.0
2015-Mar-24 02:31N 44°25' E 008°47'0 0.0
2015-Mar-24 01:31N 44°25' E 008°47'0 0.0
2015-Mar-24 00:10N 44°25' E 008°47'0 0.0
2015-Mar-23 23:31N 44°25' E 008°47'0 0.0
2015-Mar-23 22:16N 44°25' E 008°47'0 0.0
2015-Mar-23 21:16N 44°25' E 008°47'0 0.0
2015-Mar-23 20:16N 44°25' E 008°47'0 0.0
2015-Mar-23 19:13N 44°25' E 008°47'0 0.0
2015-Mar-23 18:31N 44°25' E 008°47'0 0.0
2015-Mar-23 17:31N 44°25' E 008°47'0 0.0
2015-Mar-23 16:28N 44°25' E 008°47'0 0.0
2015-Mar-23 15:31N 44°25' E 008°47'0 0.0
2015-Mar-23 14:28N 44°25' E 008°47'0 0.0
2015-Mar-23 13:31N 44°25' E 008°47'0 0.0
2015-Mar-23 12:31N 44°25' E 008°47'0 0.0
2015-Mar-23 11:31N 44°25' E 008°47'0 0.0
2015-Mar-23 10:31N 44°25' E 008°47'0 0.0
2015-Mar-23 09:31N 44°25' E 008°47'0 0.0
2015-Mar-23 08:31N 44°25' E 008°47'0 0.0
2015-Mar-23 07:31N 44°25' E 008°47'0 0.0
2015-Mar-23 06:31N 44°25' E 008°47'0 0.0
2015-Mar-23 05:32N 44°25' E 008°47'0 0.0
2015-Mar-23 04:31N 44°25' E 008°47'0 0.0
2015-Mar-23 03:22N 44°25' E 008°47'0 0.0
2015-Mar-23 02:31N 44°25' E 008°47'0 0.0
2015-Mar-23 01:31N 44°25' E 008°47'0 0.0
2015-Mar-23 00:25N 44°25' E 008°47'0 0.0
2015-Mar-22 23:22N 44°25' E 008°47'0 0.0
2015-Mar-22 22:33N 44°25' E 008°47'0 0.0
2015-Mar-22 21:33N 44°25' E 008°47'0 0.3
2015-Mar-22 20:32N 44°25' E 008°47'5 4.7
2015-Mar-22 19:29N 44°21' E 008°43'1110.6
2015-Mar-22 18:25N 44°13' E 008°55'1011.1
2015-Mar-22 17:32N 44°06' E 009°05'1110.8
2015-Mar-22 16:33N 43°59' E 009°16'1110.8
2015-Mar-22 15:33N 43°52' E 009°27'10 9.6
2015-Mar-22 14:33N 43°46' E 009°37'1110.5
2015-Mar-22 13:33N 43°39' E 009°48'1010.1
2015-Mar-22 12:33N 43°32' E 009°59'10 9.8
2015-Mar-22 11:33N 43°31' E 010°12'6 5.9
2015-Mar-22 10:33N 43°35' E 010°18'0 0.1
2015-Mar-22 09:28N 43°35' E 010°18'0 0.0
2015-Mar-22 08:31N 43°35' E 010°18'0 0.0
2015-Mar-22 07:31N 43°35' E 010°18'0 0.0
2015-Mar-22 06:31N 43°35' E 010°18'0 0.0
2015-Mar-22 05:31N 43°35' E 010°18'0 0.0
2015-Mar-22 04:25N 43°35' E 010°18'0 0.0
2015-Mar-22 03:28N 43°35' E 010°18'0 0.0
2015-Mar-22 02:31N 43°35' E 010°18'0 0.0
2015-Mar-22 01:31N 43°35' E 010°18'0 0.0
2015-Mar-22 00:31N 43°35' E 010°18'0 0.0
2015-Mar-21 23:31N 43°35' E 010°18'0 0.0
2015-Mar-21 22:31N 43°35' E 010°18'0 0.0
2015-Mar-21 21:31N 43°35' E 010°18'0 0.0
2015-Mar-21 20:31N 43°35' E 010°18'0 0.0
2015-Mar-21 19:31N 43°35' E 010°18'0 0.0
2015-Mar-21 18:31N 43°35' E 010°18'0 0.0
2015-Mar-21 17:31N 43°35' E 010°18'0 0.0
2015-Mar-21 16:31N 43°35' E 010°18'0 0.0
2015-Mar-21 15:31N 43°35' E 010°18'0 0.0
2015-Mar-21 14:31N 43°35' E 010°18'0 0.0
2015-Mar-21 13:31N 43°35' E 010°18'0 0.0
2015-Mar-21 12:31N 43°35' E 010°18'0 0.0
2015-Mar-21 11:28N 43°35' E 010°18'0 0.0
2015-Mar-21 10:31N 43°35' E 010°18'0 0.0
2015-Mar-21 09:31N 43°35' E 010°18'0 0.0
2015-Mar-21 08:31N 43°35' E 010°18'1 1.3
2015-Mar-21 07:33N 43°33' E 010°18'5 5.0
2015-Mar-21 06:33N 43°29' E 010°15'2 1.8
2015-Mar-21 05:34N 43°28' E 010°16'2 1.7
2015-Mar-21 04:33N 43°26' E 010°15'9 9.4
2015-Mar-21 03:34N 43°19' E 010°07'1212.1
2015-Mar-21 02:33N 43°07' E 010°05'1211.8
2015-Mar-21 01:33N 42°55' E 010°04'1311.2
2015-Mar-21 00:27N 42°43' E 010°05'1111.8
2015-Mar-20 23:30N 42°35' E 010°16'1111.9
2015-Mar-20 22:33N 42°28' E 010°27'1211.9
2015-Mar-20 21:33N 42°21' E 010°40'1212.0
2015-Mar-20 20:34N 42°13' E 010°52'139 6.9
2015-Mar-20 00:19N 40°33' E 013°02'1417.9
2015-Mar-19 23:33N 40°24' E 013°15'1917.7
2015-Mar-19 22:28N 40°11' E 013°34'  
Track history (hours):
 
Tides and Currents Weather Stations Pressure Air Temp Water Temp Dewpoint Dewpoint Depression Visibility Wind Speed Wind Dir Waves Ship Positions

MSC Vigo

Last reported at 2015-Mar-29 00:31 UTC. Time now 2015-Mar-29 01:07 UTC.
Position N 39°26' W 000°20'.

Length 270 m; draft 11.7 m.

Type: Ship (hazmat cat A). MMSI: 636092276.

Date/timePositionNaut miles runAvg speedWind from/ knotsBaromVisibWave heightAir tempDewpointWater temp
2015-Mar-29 00:31N 39°26' W 000°20'0 0.0
2015-Mar-28 23:31N 39°26' W 000°20'0 0.0
2015-Mar-28 22:31N 39°26' W 000°20'0 0.0
2015-Mar-28 21:31N 39°26' W 000°20'0 0.0
2015-Mar-28 20:31N 39°26' W 000°20'0 0.0
2015-Mar-28 19:31N 39°26' W 000°20'0 0.0
2015-Mar-28 18:31N 39°26' W 000°20'0 0.0
2015-Mar-28 17:25N 39°26' W 000°20'0 0.0
2015-Mar-28 16:31N 39°26' W 000°20'0 0.0
2015-Mar-28 15:31N 39°26' W 000°20'0 0.0
2015-Mar-28 14:31N 39°26' W 000°20'0 0.0
2015-Mar-28 13:31N 39°26' W 000°20'0 0.0
2015-Mar-28 12:25N 39°26' W 000°20'0 0.0
2015-Mar-28 11:31N 39°26' W 000°20'0 0.3
2015-Mar-28 10:31N 39°26' W 000°20'0 0.0
2015-Mar-28 09:31N 39°26' W 000°20'0 0.0
2015-Mar-28 08:31N 39°26' W 000°20'0 0.0
2015-Mar-28 07:31N 39°26' W 000°20'0 0.0
2015-Mar-28 06:31N 39°26' W 000°20'0 0.0
2015-Mar-28 05:31N 39°26' W 000°20'0 0.0
2015-Mar-28 04:31N 39°26' W 000°20'0 0.0
2015-Mar-28 03:31N 39°26' W 000°20'0 0.0
2015-Mar-28 02:31N 39°26' W 000°20'0 0.0
2015-Mar-28 01:32N 39°26' W 000°20'3 3.1
2015-Mar-28 00:33N 39°25' W 000°16'5 4.9
2015-Mar-27 23:33N 39°22' W 000°11'1 0.5
2015-Mar-27 22:31N 39°22' W 000°11'0 0.4
2015-Mar-27 21:33N 39°22' W 000°12'0 0.3
2015-Mar-27 20:33N 39°23' W 000°12'1 1.1
2015-Mar-27 19:33N 39°24' W 000°12'1 1.0
2015-Mar-27 18:33N 39°25' W 000°12'1211.5
2015-Mar-27 17:33N 39°25' E 000°03'3716.0
2015-Mar-27 15:15N 39°27' E 000°51'1413.2
2015-Mar-27 14:12N 39°41' E 000°52'1117.2
2015-Mar-27 13:34N 39°50' E 000°60'2019.5
2015-Mar-27 12:33N 40°07' E 001°13'1919.4
2015-Mar-27 11:33N 40°23' E 001°27'1919.3
2015-Mar-27 10:34N 40°39' E 001°41'2020.2
2015-Mar-27 09:33N 40°57' E 001°55'2019.6
2015-Mar-27 08:33N 41°13' E 002°09'5 0.4
2015-Mar-26 18:09N 41°18' E 002°09'2 1.1
2015-Mar-26 16:31N 41°18' E 002°11'6 6.5
2015-Mar-26 15:33N 41°15' E 002°18'1 1.0
2015-Mar-26 14:33N 41°14' E 002°17'1 0.8
2015-Mar-26 13:31N 41°14' E 002°16'1 0.7
2015-Mar-26 12:33N 41°14' E 002°15'1 0.6
2015-Mar-26 11:19N 41°15' E 002°15'5 2.9
2015-Mar-26 09:33N 41°17' E 002°21'2914.1
2015-Mar-26 07:29N 41°33' E 002°54'1515.1
2015-Mar-26 06:29N 41°41' E 003°10'1414.8
2015-Mar-26 05:33N 41°50' E 003°24'1515.4
2015-Mar-26 04:34N 42°02' E 003°38'1515.0
2015-Mar-26 03:34N 42°13' E 003°51'1515.0
2015-Mar-26 02:33N 42°25' E 004°04'1514.9
2015-Mar-26 01:34N 42°36' E 004°17'1715.3
2015-Mar-26 00:28N 42°48' E 004°32'1414.5
2015-Mar-25 23:28N 42°59' E 004°45'1414.7
2015-Mar-25 22:33N 43°09' E 004°58'1313.3
2015-Mar-25 21:33N 43°23' E 004°57'6 5.5
2015-Mar-25 20:32N 43°25' E 004°50'0 0.0
2015-Mar-25 19:32N 43°25' E 004°50'0 0.0
2015-Mar-25 18:32N 43°25' E 004°50'0 0.0
2015-Mar-25 17:32N 43°25' E 004°50'0 0.0
2015-Mar-25 16:32N 43°25' E 004°50'0 0.0
2015-Mar-25 15:32N 43°25' E 004°50'0 0.0
2015-Mar-25 14:32N 43°25' E 004°50'0 0.0
2015-Mar-25 13:32N 43°25' E 004°50'0 0.0
2015-Mar-25 12:32N 43°25' E 004°50'0 0.0
2015-Mar-25 11:33N 43°25' E 004°50'0 0.0
2015-Mar-25 10:33N 43°25' E 004°50'0 0.0
2015-Mar-25 09:33N 43°25' E 004°50'0 0.0
2015-Mar-25 08:33N 43°25' E 004°50'0 0.0
2015-Mar-25 07:33N 43°25' E 004°50'0 0.0
2015-Mar-25 06:33N 43°25' E 004°50'0 0.0
2015-Mar-25 05:33N 43°25' E 004°50'0 0.0
2015-Mar-25 04:33N 43°25' E 004°50'0 0.0
2015-Mar-25 03:33N 43°25' E 004°50'3 2.8
2015-Mar-25 02:33N 43°24' E 004°54'1111.2
2015-Mar-25 01:33N 43°14' E 005°02'7711.0
2015-Mar-24 18:33N 42°55' E 006°44'1313.0
2015-Mar-24 17:32N 43°01' E 007°01'1212.6
2015-Mar-24 16:33N 43°05' E 007°16'1312.4
2015-Mar-24 15:32N 43°10' E 007°32'4912.0
2015-Mar-24 11:27N 43°46' E 008°18'1314.1
2015-Mar-24 10:34N 43°57' E 008°27'1313.1
2015-Mar-24 09:33N 44°09' E 008°36'1313.5
2015-Mar-24 08:33N 44°21' E 008°42'5 5.0
2015-Mar-24 07:31N 44°25' E 008°47'0 0.0
2015-Mar-24 06:31N 44°25' E 008°47'0 0.0
2015-Mar-24 05:28N 44°25' E 008°47'0 0.0
2015-Mar-24 04:28N 44°25' E 008°47'0 0.0
2015-Mar-24 03:31N 44°25' E 008°47'0 0.0
2015-Mar-24 02:31N 44°25' E 008°47'0 0.0
2015-Mar-24 01:31N 44°25' E 008°47'0 0.0
2015-Mar-24 00:10N 44°25' E 008°47'0 0.0
2015-Mar-23 23:31N 44°25' E 008°47'0 0.0
2015-Mar-23 22:16N 44°25' E 008°47'0 0.0
2015-Mar-23 21:16N 44°25' E 008°47'0 0.0
2015-Mar-23 20:16N 44°25' E 008°47'0 0.0
2015-Mar-23 19:13N 44°25' E 008°47'0 0.0
2015-Mar-23 18:31N 44°25' E 008°47'0 0.0
2015-Mar-23 17:31N 44°25' E 008°47'0 0.0
2015-Mar-23 16:28N 44°25' E 008°47'0 0.0
2015-Mar-23 15:31N 44°25' E 008°47'0 0.0
2015-Mar-23 14:28N 44°25' E 008°47'0 0.0
2015-Mar-23 13:31N 44°25' E 008°47'0 0.0
2015-Mar-23 12:31N 44°25' E 008°47'0 0.0
2015-Mar-23 11:31N 44°25' E 008°47'0 0.0
2015-Mar-23 10:31N 44°25' E 008°47'0 0.0
2015-Mar-23 09:31N 44°25' E 008°47'0 0.0
2015-Mar-23 08:31N 44°25' E 008°47'0 0.0
2015-Mar-23 07:31N 44°25' E 008°47'0 0.0
2015-Mar-23 06:31N 44°25' E 008°47'0 0.0
2015-Mar-23 05:32N 44°25' E 008°47'0 0.0
2015-Mar-23 04:31N 44°25' E 008°47'0 0.0
2015-Mar-23 03:22N 44°25' E 008°47'0 0.0
2015-Mar-23 02:31N 44°25' E 008°47'0 0.0
2015-Mar-23 01:31N 44°25' E 008°47'0 0.0
2015-Mar-23 00:25N 44°25' E 008°47'0 0.0
2015-Mar-22 23:22N 44°25' E 008°47'0 0.0
2015-Mar-22 22:33N 44°25' E 008°47'0 0.0
2015-Mar-22 21:33N 44°25' E 008°47'0 0.3
2015-Mar-22 20:32N 44°25' E 008°47'5 4.7
2015-Mar-22 19:29N 44°21' E 008°43'1110.6
2015-Mar-22 18:25N 44°13' E 008°55'1011.1
2015-Mar-22 17:32N 44°06' E 009°05'1110.8
2015-Mar-22 16:33N 43°59' E 009°16'1110.8
2015-Mar-22 15:33N 43°52' E 009°27'10 9.6
2015-Mar-22 14:33N 43°46' E 009°37'1110.5
2015-Mar-22 13:33N 43°39' E 009°48'1010.1
2015-Mar-22 12:33N 43°32' E 009°59'10 9.8
2015-Mar-22 11:33N 43°31' E 010°12'6 5.9
2015-Mar-22 10:33N 43°35' E 010°18'0 0.1
2015-Mar-22 09:28N 43°35' E 010°18'0 0.0
2015-Mar-22 08:31N 43°35' E 010°18'0 0.0
2015-Mar-22 07:31N 43°35' E 010°18'0 0.0
2015-Mar-22 06:31N 43°35' E 010°18'0 0.0
2015-Mar-22 05:31N 43°35' E 010°18'0 0.0
2015-Mar-22 04:25N 43°35' E 010°18'0 0.0
2015-Mar-22 03:28N 43°35' E 010°18'0 0.0
2015-Mar-22 02:31N 43°35' E 010°18'0 0.0
2015-Mar-22 01:31N 43°35' E 010°18'0 0.0
2015-Mar-22 00:31N 43°35' E 010°18'0 0.0
2015-Mar-21 23:31N 43°35' E 010°18'0 0.0
2015-Mar-21 22:31N 43°35' E 010°18'0 0.0
2015-Mar-21 21:31N 43°35' E 010°18'0 0.0
2015-Mar-21 20:31N 43°35' E 010°18'0 0.0
2015-Mar-21 19:31N 43°35' E 010°18'0 0.0
2015-Mar-21 18:31N 43°35' E 010°18'0 0.0
2015-Mar-21 17:31N 43°35' E 010°18'0 0.0
2015-Mar-21 16:31N 43°35' E 010°18'0 0.0
2015-Mar-21 15:31N 43°35' E 010°18'0 0.0
2015-Mar-21 14:31N 43°35' E 010°18'0 0.0
2015-Mar-21 13:31N 43°35' E 010°18'0 0.0
2015-Mar-21 12:31N 43°35' E 010°18'0 0.0
2015-Mar-21 11:28N 43°35' E 010°18'0 0.0
2015-Mar-21 10:31N 43°35' E 010°18'0 0.0
2015-Mar-21 09:31N 43°35' E 010°18'0 0.0
2015-Mar-21 08:31N 43°35' E 010°18'1 1.3
2015-Mar-21 07:33N 43°33' E 010°18'5 5.0
2015-Mar-21 06:33N 43°29' E 010°15'2 1.8
2015-Mar-21 05:34N 43°28' E 010°16'2 1.7
2015-Mar-21 04:33N 43°26' E 010°15'9 9.4
2015-Mar-21 03:34N 43°19' E 010°07'1212.1
2015-Mar-21 02:33N 43°07' E 010°05'1211.8
2015-Mar-21 01:33N 42°55' E 010°04'1311.2
2015-Mar-21 00:27N 42°43' E 010°05'1111.8
2015-Mar-20 23:30N 42°35' E 010°16'1111.9
2015-Mar-20 22:33N 42°28' E 010°27'1211.9
2015-Mar-20 21:33N 42°21' E 010°40'1212.0
2015-Mar-20 20:34N 42°13' E 010°52'139 6.9
2015-Mar-20 00:19N 40°33' E 013°02'1417.9
2015-Mar-19 23:33N 40°24' E 013°15'1917.7
2015-Mar-19 22:28N 40°11' E 013°34'  

Dump ship's entire track history